createdAt,value
2017-09-24T00:00:32.817Z,85.81
2017-09-24T00:03:00.285Z,85.90
2017-09-24T00:05:27.739Z,86.51
2017-09-24T00:07:55.209Z,86.21
2017-09-24T00:10:22.663Z,86.48
2017-09-24T00:12:50.157Z,86.63
2017-09-24T00:15:17.641Z,86.39
2017-09-24T00:17:45.119Z,85.95
2017-09-24T00:20:12.662Z,85.94
2017-09-24T00:22:40.142Z,85.67
2017-09-24T00:25:07.635Z,86.87
2017-09-24T00:27:35.115Z,85.85
2017-09-24T00:30:02.559Z,85.12
2017-09-24T00:32:30.039Z,84.91
2017-09-24T00:34:57.495Z,84.86
2017-09-24T00:37:24.968Z,84.81
2017-09-24T00:39:52.464Z,84.95
2017-09-24T00:42:19.932Z,84.98
2017-09-24T00:44:47.366Z,85.81
2017-09-24T00:47:14.886Z,86.31
2017-09-24T00:49:42.369Z,86.16
2017-09-24T00:52:09.912Z,85.95
2017-09-24T00:54:37.379Z,86.13
2017-09-24T00:57:04.839Z,85.10
2017-09-24T00:59:32.396Z,85.00
2017-09-24T01:01:59.858Z,85.33
2017-09-24T01:04:27.407Z,85.54
2017-09-24T01:06:54.857Z,85.84
2017-09-24T01:09:22.327Z,85.68
2017-09-24T01:11:49.785Z,86.40
2017-09-24T01:14:17.263Z,86.15
2017-09-24T01:16:44.716Z,86.30
2017-09-24T01:19:12.200Z,86.29
2017-09-24T01:21:39.700Z,86.18
2017-09-24T01:24:07.178Z,86.09
2017-09-24T01:26:34.638Z,86.38
2017-09-24T01:29:02.114Z,86.45
2017-09-24T01:31:29.580Z,86.66
2017-09-24T01:33:57.059Z,86.38
2017-09-24T01:36:24.540Z,86.70
2017-09-24T01:38:52.023Z,86.61
2017-09-24T01:41:19.475Z,86.30
2017-09-24T01:43:46.968Z,85.67
2017-09-24T01:46:14.475Z,86.05
2017-09-24T01:48:41.965Z,86.23
2017-09-24T01:51:09.467Z,85.87
2017-09-24T01:53:36.919Z,86.75
2017-09-24T01:56:04.392Z,86.51
2017-09-24T01:58:31.843Z,86.59
2017-09-24T02:00:59.336Z,86.28
2017-09-24T02:03:26.873Z,85.39
2017-09-24T02:05:54.352Z,85.99
2017-09-24T02:08:21.891Z,86.24
2017-09-24T02:10:49.373Z,85.77
2017-09-24T02:13:16.836Z,86.22
2017-09-24T02:15:45.994Z,85.92
2017-09-24T02:18:13.464Z,86.48
2017-09-24T02:20:40.940Z,86.39
2017-09-24T02:23:08.401Z,85.42
2017-09-24T02:25:35.924Z,85.66
2017-09-24T02:28:03.383Z,86.88
2017-09-24T02:30:30.856Z,85.97
2017-09-24T02:32:58.312Z,85.97
2017-09-24T02:35:25.783Z,86.26
2017-09-24T02:37:53.237Z,86.11
2017-09-24T02:40:20.718Z,86.42
2017-09-24T02:42:48.222Z,86.08
2017-09-24T02:45:15.704Z,86.72
2017-09-24T02:47:43.172Z,86.31
2017-09-24T02:50:10.624Z,86.84
2017-09-24T02:52:38.128Z,86.19
2017-09-24T02:55:05.601Z,86.36
2017-09-24T02:57:33.071Z,86.53
2017-09-24T03:00:01.021Z,86.39
2017-09-24T03:02:28.497Z,86.22
2017-09-24T03:04:55.963Z,86.01
2017-09-24T03:07:23.433Z,86.25
2017-09-24T03:09:50.887Z,86.76
2017-09-24T03:12:18.365Z,87.17
2017-09-24T03:14:45.819Z,87.56
2017-09-24T03:17:13.301Z,87.36
2017-09-24T03:19:40.751Z,87.66
2017-09-24T03:22:08.223Z,87.47
2017-09-24T03:24:35.671Z,87.39
2017-09-24T03:27:03.157Z,88.00
2017-09-24T03:29:30.609Z,89.68
2017-09-24T03:31:58.079Z,90.66
2017-09-24T03:34:25.565Z,91.49
2017-09-24T03:36:53.103Z,91.14
2017-09-24T03:39:20.560Z,92.04
2017-09-24T03:41:48.108Z,91.85
2017-09-24T03:44:15.564Z,92.44
2017-09-24T03:46:43.075Z,92.13
2017-09-24T03:49:10.533Z,92.14
2017-09-24T03:51:38.027Z,92.38
2017-09-24T03:54:05.595Z,92.25
2017-09-24T03:56:33.074Z,91.67
2017-09-24T03:59:00.531Z,91.17
2017-09-24T04:01:28.067Z,90.50
2017-09-24T04:03:55.548Z,90.54
2017-09-24T04:06:23.017Z,91.17
2017-09-24T04:08:50.512Z,90.19
2017-09-24T04:11:17.963Z,89.50
2017-09-24T04:13:45.543Z,89.82
2017-09-24T04:16:13.005Z,89.68
2017-09-24T04:18:40.479Z,90.34
2017-09-24T04:21:07.935Z,90.39
2017-09-24T04:23:35.399Z,90.35
2017-09-24T04:26:02.928Z,90.38
2017-09-24T04:28:30.404Z,90.24
2017-09-24T04:30:57.944Z,90.88
2017-09-24T04:33:25.410Z,91.13
2017-09-24T04:35:52.973Z,91.72
2017-09-24T04:38:20.456Z,92.09
2017-09-24T04:40:47.928Z,92.84
2017-09-24T04:43:15.399Z,93.37
2017-09-24T04:45:42.855Z,93.79
2017-09-24T04:48:10.352Z,93.55
2017-09-24T04:50:37.816Z,93.53
2017-09-24T04:53:05.310Z,93.46
2017-09-24T04:55:32.776Z,93.28
2017-09-24T04:58:00.258Z,93.54
2017-09-24T05:00:27.771Z,93.79
2017-09-24T05:02:55.219Z,93.85
2017-09-24T05:05:22.704Z,94.31
2017-09-24T05:07:50.168Z,94.37
2017-09-24T05:10:17.657Z,94.35
2017-09-24T05:12:45.137Z,94.57
2017-09-24T05:15:12.623Z,95.09
2017-09-24T05:17:40.096Z,95.28
2017-09-24T05:20:07.577Z,94.92
2017-09-24T05:22:35.037Z,94.55
2017-09-24T05:25:02.512Z,94.65
2017-09-24T05:27:30.003Z,94.82
2017-09-24T05:29:57.513Z,94.56
2017-09-24T05:32:24.971Z,93.87
2017-09-24T05:34:52.478Z,93.52
2017-09-24T05:37:19.997Z,92.67
2017-09-24T05:39:47.462Z,92.49
2017-09-24T05:42:14.976Z,92.94
2017-09-24T05:44:42.460Z,93.41
2017-09-24T05:47:09.919Z,92.52
2017-09-24T05:49:37.404Z,92.91
2017-09-24T05:52:04.953Z,93.07
2017-09-24T05:54:32.444Z,93.18
2017-09-24T05:56:59.954Z,92.68
2017-09-24T05:59:27.443Z,92.73
2017-09-24T06:01:54.966Z,92.30
2017-09-24T06:04:22.432Z,91.87
2017-09-24T06:06:49.947Z,90.74
2017-09-24T06:09:17.437Z,91.96
2017-09-24T06:11:44.916Z,93.01
2017-09-24T06:14:12.394Z,93.75
2017-09-24T06:16:39.873Z,93.05
2017-09-24T06:19:07.329Z,93.01
2017-09-24T06:21:34.820Z,92.61
2017-09-24T06:24:02.284Z,92.60
2017-09-24T06:26:29.840Z,92.28
2017-09-24T06:28:57.303Z,92.52
2017-09-24T06:31:24.792Z,91.77
2017-09-24T06:33:52.303Z,91.50
2017-09-24T06:36:19.776Z,91.52
2017-09-24T06:38:47.240Z,91.63
2017-09-24T06:41:14.711Z,91.11
2017-09-24T06:43:42.163Z,91.60
2017-09-24T06:46:09.636Z,91.62
2017-09-24T06:48:37.097Z,91.13
2017-09-24T06:51:04.571Z,91.35
2017-09-24T06:53:32.023Z,90.81
2017-09-24T06:55:59.509Z,91.45
2017-09-24T06:58:26.992Z,90.84
2017-09-24T07:00:54.479Z,90.18
2017-09-24T07:03:21.938Z,90.72
2017-09-24T07:05:49.427Z,90.69
2017-09-24T07:08:16.885Z,90.75
2017-09-24T07:10:44.339Z,90.37
2017-09-24T07:13:11.811Z,89.95
2017-09-24T07:15:39.272Z,90.20
2017-09-24T07:18:06.776Z,89.25
2017-09-24T07:20:34.237Z,89.46
2017-09-24T07:23:01.745Z,88.89
2017-09-24T07:25:29.225Z,89.51
2017-09-24T07:27:56.711Z,89.10
2017-09-24T07:30:24.172Z,88.68
2017-09-24T07:32:51.647Z,88.55
2017-09-24T07:35:19.099Z,88.70
2017-09-24T07:37:46.577Z,89.35
2017-09-24T07:40:14.040Z,89.84
2017-09-24T07:42:41.524Z,90.42
2017-09-24T07:45:08.984Z,89.31
2017-09-24T07:47:36.459Z,88.29
2017-09-24T07:50:03.916Z,87.70
2017-09-24T07:52:31.391Z,87.81
2017-09-24T07:54:58.877Z,87.42
2017-09-24T07:57:26.373Z,86.72
2017-09-24T07:59:53.832Z,85.99
2017-09-24T08:02:21.301Z,84.96
2017-09-24T08:04:48.807Z,85.80
2017-09-24T08:07:16.265Z,85.58
2017-09-24T08:09:43.748Z,84.89
2017-09-24T08:12:11.283Z,82.84
2017-09-24T08:14:38.839Z,83.56
2017-09-24T08:17:06.300Z,83.89
2017-09-24T08:19:33.861Z,84.22
2017-09-24T08:22:01.332Z,83.39
2017-09-24T08:24:28.817Z,83.43
2017-09-24T08:26:56.272Z,84.44
2017-09-24T08:29:23.739Z,84.66
2017-09-24T08:31:51.200Z,83.14
2017-09-24T08:34:18.697Z,83.71
2017-09-24T08:36:46.183Z,82.50
2017-09-24T08:39:13.709Z,81.94
2017-09-24T08:41:41.271Z,80.75
2017-09-24T08:44:08.786Z,82.29
2017-09-24T08:46:36.243Z,82.54
2017-09-24T08:49:03.729Z,80.73
2017-09-24T08:51:31.186Z,79.89
2017-09-24T08:53:58.671Z,81.14
2017-09-24T08:56:26.225Z,80.98
2017-09-24T08:58:53.768Z,80.64
2017-09-24T09:01:21.249Z,79.86
2017-09-24T09:03:48.791Z,80.60
2017-09-24T09:06:16.272Z,79.67
2017-09-24T09:08:43.747Z,78.89
2017-09-24T09:11:11.259Z,79.57
2017-09-24T09:13:38.713Z,79.19
2017-09-24T09:16:06.190Z,78.66
2017-09-24T09:18:33.734Z,78.81
2017-09-24T09:21:01.220Z,79.82
2017-09-24T09:23:28.679Z,77.95
2017-09-24T09:25:56.205Z,76.69
2017-09-24T09:28:23.660Z,76.81
2017-09-24T09:30:51.223Z,77.07
2017-09-24T09:33:21.427Z,76.63
2017-09-24T09:35:48.908Z,75.45
2017-09-24T09:38:16.403Z,76.28
2017-09-24T09:40:43.896Z,76.33
2017-09-24T09:43:11.367Z,74.72
2017-09-24T09:45:50.731Z,74.71
2017-09-24T09:48:18.209Z,74.38
2017-09-24T09:50:45.695Z,74.44
2017-09-24T09:53:13.164Z,73.94
2017-09-24T09:55:40.644Z,73.03
2017-09-24T09:58:08.188Z,72.79
2017-09-24T10:00:35.749Z,72.52
2017-09-24T10:03:03.224Z,71.93
2017-09-24T10:05:30.775Z,70.64
2017-09-24T10:08:10.197Z,71.19
2017-09-24T10:10:37.684Z,71.42
2017-09-24T10:13:05.143Z,71.16
2017-09-24T10:15:32.647Z,71.42
2017-09-24T10:18:00.103Z,70.99
2017-09-24T10:20:27.595Z,69.40
2017-09-24T10:22:55.256Z,69.36
2017-09-24T10:25:22.752Z,68.74
2017-09-24T10:30:28.601Z,69.69
2017-09-24T10:32:56.063Z,69.65
2017-09-24T10:35:23.519Z,69.69
2017-09-24T10:37:51.002Z,68.64
2017-09-24T10:40:18.472Z,68.26
2017-09-24T10:42:45.942Z,66.63
2017-09-24T10:45:13.394Z,66.19
2017-09-24T10:47:40.881Z,65.65
2017-09-24T10:50:08.340Z,66.13
2017-09-24T10:52:35.819Z,66.72
2017-09-24T10:55:03.286Z,66.89
2017-09-24T10:57:30.779Z,67.50
2017-09-24T10:59:58.235Z,66.39
2017-09-24T11:02:25.709Z,63.26
2017-09-24T11:04:53.167Z,63.72
2017-09-24T11:07:20.748Z,63.69
2017-09-24T11:09:48.221Z,63.48
2017-09-24T11:12:15.738Z,65.18
2017-09-24T11:14:43.196Z,64.59
2017-09-24T11:17:10.671Z,64.70
2017-09-24T11:19:38.136Z,62.79
2017-09-24T11:22:05.615Z,63.44
2017-09-24T11:24:33.077Z,61.97
2017-09-24T11:27:00.571Z,62.31
2017-09-24T11:29:28.027Z,63.05
2017-09-24T11:31:55.503Z,64.11
2017-09-24T11:34:23.087Z,63.84
2017-09-24T11:36:50.611Z,63.62
2017-09-24T11:39:18.072Z,63.53
2017-09-24T11:41:45.543Z,62.67
2017-09-24T11:44:12.996Z,62.89
2017-09-24T11:46:40.553Z,63.34
2017-09-24T11:49:08.097Z,63.20
2017-09-24T11:51:35.579Z,63.32
2017-09-24T11:54:03.125Z,63.32
2017-09-24T11:56:30.622Z,62.99
2017-09-24T11:58:58.076Z,62.55
2017-09-24T12:01:25.561Z,62.63
2017-09-24T12:03:53.019Z,63.75
2017-09-24T12:06:20.485Z,62.62
2017-09-24T12:08:48.064Z,62.86
2017-09-24T12:11:15.524Z,63.29
2017-09-24T12:13:43.114Z,62.87
2017-09-24T12:16:10.631Z,63.05
2017-09-24T12:18:38.192Z,63.00
2017-09-24T12:21:05.670Z,63.66
2017-09-24T12:23:33.154Z,62.71
2017-09-24T12:26:00.616Z,63.89
2017-09-24T12:28:28.117Z,64.38
2017-09-24T12:30:55.580Z,63.91
2017-09-24T12:33:23.066Z,63.85
2017-09-24T12:35:50.601Z,64.63
2017-09-24T12:38:18.075Z,64.10
2017-09-24T12:40:45.541Z,64.66
2017-09-24T12:43:13.073Z,65.23
2017-09-24T12:45:40.550Z,65.69
2017-09-24T12:48:08.041Z,65.44
2017-09-24T12:50:35.514Z,64.92
2017-09-24T12:53:02.990Z,63.49
2017-09-24T12:55:30.460Z,63.18
2017-09-24T12:57:58.015Z,62.38
2017-09-24T13:00:25.480Z,63.75
2017-09-24T13:02:52.974Z,62.66
2017-09-24T13:05:20.460Z,62.06
2017-09-24T13:07:47.920Z,61.27
2017-09-24T13:10:15.408Z,62.66
2017-09-24T13:12:42.899Z,62.32
2017-09-24T13:15:10.384Z,62.32
2017-09-24T13:17:37.913Z,63.13
2017-09-24T13:20:05.404Z,62.05
2017-09-24T13:22:32.877Z,61.82
2017-09-24T13:25:00.389Z,63.81
2017-09-24T13:27:27.855Z,63.02
2017-09-24T13:29:55.358Z,63.15
2017-09-24T13:32:22.822Z,62.81
2017-09-24T13:34:50.295Z,62.79
2017-09-24T13:37:17.747Z,61.74
2017-09-24T13:39:45.247Z,62.91
2017-09-24T13:42:12.733Z,61.60
2017-09-24T13:44:40.243Z,61.36
2017-09-24T13:47:07.704Z,62.51
2017-09-24T13:49:35.188Z,63.06
2017-09-24T13:52:02.664Z,61.86
2017-09-24T13:54:30.232Z,62.13
2017-09-24T13:56:57.700Z,62.17
2017-09-24T13:59:25.247Z,62.76
2017-09-24T14:01:52.747Z,63.09
2017-09-24T14:04:20.211Z,62.40
2017-09-24T14:06:47.687Z,61.77
2017-09-24T14:09:15.143Z,61.66
2017-09-24T14:11:42.674Z,61.73
2017-09-24T14:14:10.141Z,62.77
2017-09-24T14:16:37.635Z,61.46
2017-09-24T14:19:05.115Z,62.13
2017-09-24T14:21:32.587Z,63.03
2017-09-24T14:24:00.047Z,62.92
2017-09-24T14:26:27.524Z,62.26
2017-09-24T14:28:55.037Z,61.65
2017-09-24T14:31:22.513Z,62.48
2017-09-24T14:33:50.025Z,63.09
2017-09-24T14:36:17.495Z,63.43
2017-09-24T14:38:45.068Z,64.14
2017-09-24T14:41:12.570Z,64.50
2017-09-24T14:43:40.075Z,63.83
2017-09-24T14:46:07.678Z,64.99
2017-09-24T14:48:35.148Z,63.38
2017-09-24T14:51:02.604Z,63.45
2017-09-24T14:53:30.098Z,63.52
2017-09-24T14:55:57.657Z,64.02
2017-09-24T14:58:25.132Z,63.67
2017-09-24T15:00:52.601Z,63.73
2017-09-24T15:03:20.187Z,63.59
2017-09-24T15:05:47.643Z,63.53
2017-09-24T15:08:15.142Z,62.39
2017-09-24T15:10:42.610Z,61.47
2017-09-24T15:13:10.084Z,61.07
2017-09-24T15:15:37.541Z,61.71
2017-09-24T15:18:05.026Z,61.74
2017-09-24T15:20:32.534Z,61.81
2017-09-24T15:23:00.019Z,61.49
2017-09-24T15:25:27.478Z,61.46
2017-09-24T15:27:54.956Z,61.16
2017-09-24T15:30:22.476Z,61.04
2017-09-24T15:32:49.951Z,60.56
2017-09-24T15:35:17.470Z,60.60
2017-09-24T15:37:44.940Z,61.59
2017-09-24T15:40:12.395Z,60.89
2017-09-24T15:42:39.951Z,60.51
2017-09-24T15:45:07.440Z,60.07
2017-09-24T15:47:34.919Z,60.63
2017-09-24T15:50:02.374Z,60.83
2017-09-24T15:52:29.837Z,60.03
2017-09-24T15:54:57.328Z,59.88
2017-09-24T15:57:24.784Z,60.64
2017-09-24T15:59:52.291Z,59.54
2017-09-24T16:02:19.752Z,59.70
2017-09-24T16:04:47.263Z,59.79
2017-09-24T16:07:14.748Z,60.21
2017-09-24T16:09:42.229Z,60.03
2017-09-24T16:12:09.707Z,60.43
2017-09-24T16:14:37.184Z,60.79
2017-09-24T16:17:04.645Z,60.52
2017-09-24T16:19:32.124Z,61.79
2017-09-24T16:21:59.588Z,61.59
2017-09-24T16:24:27.115Z,62.34
2017-09-24T16:26:54.576Z,62.29
2017-09-24T16:29:22.078Z,63.17
2017-09-24T16:31:49.583Z,63.00
2017-09-24T16:34:17.064Z,63.87
2017-09-24T16:36:44.527Z,64.27
2017-09-24T16:39:12.009Z,64.67
2017-09-24T16:41:39.472Z,64.73
2017-09-24T16:44:06.981Z,64.74
2017-09-24T16:46:34.502Z,64.86
2017-09-24T16:49:01.978Z,64.60
2017-09-24T16:51:29.468Z,64.87
2017-09-24T16:53:56.960Z,65.53
2017-09-24T16:56:24.427Z,65.58
2017-09-24T16:58:51.915Z,66.22
2017-09-24T17:01:19.373Z,66.93
2017-09-24T17:03:46.858Z,67.02
2017-09-24T17:06:14.321Z,67.31
2017-09-24T17:08:41.824Z,67.29
2017-09-24T17:11:09.333Z,67.27
2017-09-24T17:13:36.803Z,67.09
2017-09-24T17:16:04.289Z,68.17
2017-09-24T17:18:31.780Z,68.71
2017-09-24T17:20:59.344Z,69.95
2017-09-24T17:23:26.803Z,70.65
2017-09-24T17:25:54.307Z,71.14
2017-09-24T17:28:21.780Z,71.63
2017-09-24T17:30:49.275Z,71.83
2017-09-24T17:33:16.735Z,73.20
2017-09-24T17:35:44.287Z,73.77
2017-09-24T17:38:11.842Z,74.93
2017-09-24T17:40:39.399Z,75.91
2017-09-24T17:43:06.862Z,76.29
2017-09-24T17:45:34.350Z,77.43
2017-09-24T17:48:01.854Z,78.10
2017-09-24T17:50:29.324Z,77.95
2017-09-24T17:52:56.881Z,78.82
2017-09-24T17:55:24.380Z,78.09
2017-09-24T17:57:51.849Z,78.41
2017-09-24T18:00:19.328Z,77.95
2017-09-24T18:02:46.844Z,77.88
2017-09-24T18:05:14.331Z,77.64
2017-09-24T18:07:41.784Z,78.42
2017-09-24T18:10:09.279Z,79.49
2017-09-24T18:12:36.781Z,80.26
2017-09-24T18:15:04.269Z,80.21
2017-09-24T18:17:31.751Z,80.23
2017-09-24T18:19:59.313Z,80.48
2017-09-24T18:22:26.872Z,80.37
2017-09-24T18:24:54.338Z,78.90
2017-09-24T18:27:21.878Z,78.98
2017-09-24T18:29:49.345Z,78.85
2017-09-24T18:32:16.837Z,78.79
2017-09-24T18:34:44.356Z,79.62
2017-09-24T18:37:11.848Z,79.01
2017-09-24T18:39:39.304Z,79.89
2017-09-24T18:42:06.787Z,79.72
2017-09-24T18:44:34.250Z,79.60
2017-09-24T18:47:01.849Z,79.56
2017-09-24T18:49:29.327Z,80.29
2017-09-24T18:51:56.792Z,79.52
2017-09-24T18:54:24.267Z,79.67
2017-09-24T18:56:51.724Z,79.48
2017-09-24T18:59:19.209Z,79.48
2017-09-24T19:01:46.680Z,79.75
2017-09-24T19:04:14.247Z,80.15
2017-09-24T19:06:41.720Z,79.96
2017-09-24T19:09:09.252Z,80.21
2017-09-24T19:11:36.708Z,80.73
2017-09-24T19:14:04.188Z,80.68
2017-09-24T19:16:31.664Z,80.96
2017-09-24T19:18:59.147Z,81.13
2017-09-24T19:21:26.616Z,81.12
2017-09-24T19:23:54.125Z,81.25
2017-09-24T19:26:21.584Z,81.28
2017-09-24T19:28:49.044Z,81.64
2017-09-24T19:31:16.529Z,81.53
2017-09-24T19:33:43.985Z,82.07
2017-09-24T19:36:11.468Z,82.35
2017-09-24T19:38:39.050Z,81.88
2017-09-24T19:41:06.528Z,81.85
2017-09-24T19:43:34.082Z,82.19
2017-09-24T19:46:01.573Z,82.09
2017-09-24T19:48:29.086Z,82.18
2017-09-24T19:50:56.628Z,82.30
2017-09-24T19:53:24.112Z,82.10
2017-09-24T19:55:51.600Z,82.84
2017-09-24T19:58:19.059Z,82.98
2017-09-24T20:00:46.543Z,83.00
2017-09-24T20:03:14.005Z,83.04
2017-09-24T20:05:41.519Z,83.56
2017-09-24T20:08:08.996Z,83.33
2017-09-24T20:10:36.481Z,82.83
2017-09-24T20:13:03.955Z,83.07
2017-09-24T20:15:31.496Z,82.51
2017-09-24T20:17:58.974Z,82.83
2017-09-24T20:20:26.514Z,83.47
2017-09-24T20:22:53.999Z,84.24
2017-09-24T20:25:21.490Z,83.86
2017-09-24T20:27:48.952Z,83.73
2017-09-24T20:30:16.437Z,84.57
2017-09-24T20:32:43.907Z,85.36
2017-09-24T20:35:11.388Z,86.69
2017-09-24T20:37:38.862Z,87.31
2017-09-24T20:40:06.349Z,85.67
2017-09-24T20:42:33.860Z,85.34
2017-09-24T20:45:01.405Z,85.14
2017-09-24T20:47:28.876Z,85.32
2017-09-24T20:49:56.356Z,84.99
2017-09-24T20:52:23.819Z,84.60
2017-09-24T20:54:51.298Z,84.26
2017-09-24T20:57:18.751Z,84.47
2017-09-24T20:59:46.216Z,84.33
2017-09-24T21:02:13.701Z,84.60
2017-09-24T21:04:41.172Z,84.54
2017-09-24T21:07:08.699Z,84.26
2017-09-24T21:09:36.166Z,84.13
2017-09-24T21:12:03.666Z,84.36
2017-09-24T21:14:31.137Z,84.98
2017-09-24T21:16:58.620Z,85.03
2017-09-24T21:19:26.083Z,84.72
2017-09-24T21:21:53.561Z,85.14
2017-09-24T21:24:21.035Z,84.57
2017-09-24T21:26:48.546Z,84.69
2017-09-24T21:29:16.011Z,84.45
2017-09-24T21:31:43.496Z,84.13
2017-09-24T21:34:10.951Z,84.15
2017-09-24T21:36:38.432Z,84.26
2017-09-24T21:39:05.905Z,84.33
2017-09-24T21:41:33.385Z,84.41
2017-09-24T21:44:00.838Z,85.20
2017-09-24T21:46:28.320Z,85.11
2017-09-24T21:48:55.828Z,84.91
2017-09-24T21:51:23.334Z,85.22
2017-09-24T21:53:50.829Z,84.54
2017-09-24T21:56:18.287Z,84.25
2017-09-24T21:58:45.778Z,84.96
2017-09-24T22:01:13.264Z,84.37
2017-09-24T22:03:40.747Z,84.21
2017-09-24T22:06:08.199Z,84.34
2017-09-24T22:08:36.561Z,84.10
2017-09-24T22:11:04.097Z,83.68
2017-09-24T22:13:32.452Z,83.60
2017-09-24T22:15:59.919Z,84.36
2017-09-24T22:18:27.428Z,85.10
2017-09-24T22:20:54.892Z,84.47
2017-09-24T22:23:22.392Z,85.19
2017-09-24T22:25:49.851Z,85.33
2017-09-24T22:28:17.344Z,85.04
2017-09-24T22:30:44.816Z,84.62
2017-09-24T22:33:12.296Z,85.48
2017-09-24T22:35:39.751Z,84.94
2017-09-24T22:38:07.264Z,84.65
2017-09-24T22:40:34.723Z,84.63
2017-09-24T22:43:02.254Z,84.79
2017-09-24T22:45:29.706Z,84.20
2017-09-24T22:47:57.324Z,84.76
2017-09-24T22:50:24.792Z,84.75
2017-09-24T22:52:52.271Z,83.90
2017-09-24T22:55:19.736Z,83.88
2017-09-24T22:57:47.219Z,83.97
2017-09-24T23:00:14.768Z,84.22
2017-09-24T23:02:42.324Z,85.19
2017-09-24T23:05:09.781Z,85.30
2017-09-24T23:07:37.239Z,86.85
2017-09-24T23:10:04.733Z,86.02
2017-09-24T23:12:32.257Z,85.38
2017-09-24T23:14:59.738Z,84.81
2017-09-24T23:17:27.212Z,84.75
2017-09-24T23:19:54.707Z,84.40
2017-09-24T23:22:22.184Z,84.35
2017-09-24T23:24:49.667Z,84.81
2017-09-24T23:27:17.331Z,84.19
2017-09-24T23:29:44.807Z,85.11
2017-09-24T23:32:12.348Z,84.81
2017-09-24T23:34:39.823Z,85.02
2017-09-24T23:37:07.291Z,85.10
2017-09-24T23:39:34.768Z,85.00
2017-09-24T23:42:02.217Z,85.37
2017-09-24T23:44:29.692Z,86.97
2017-09-24T23:46:57.276Z,85.92
2017-09-24T23:49:24.820Z,85.74
2017-09-24T23:51:52.280Z,84.96
2017-09-24T23:54:19.783Z,84.68
2017-09-24T23:56:47.240Z,84.58
2017-09-24T23:59:14.732Z,84.85
